Thassos III — SVA2112 — position and weather

sailwx.info

Track history (hours):
 
Tides and Currents Weather Stations Pressure Air Temp Water Temp Dewpoint Dewpoint Depression Visibility Wind Speed Wind Dir Waves Ship Positions

Thassos III

Last reported at 2018-Feb-20 06:00 UTC. Time now 2018-Feb-20 06:14 UTC.
Position N 40°47' E 024°42'.

Length 100 m; draft 2.1 m.

Type: Passenger vessel. MMSI: 239371500.

Date/timePositionNaut miles runAvg speedWind from/ knotsBaromVisibWave heightAir tempDewpointWater temp
2018-Feb-20 06:00N 40°47' E 024°42'0 0.0
2018-Feb-20 05:30N 40°47' E 024°42'0 0.0
2018-Feb-20 05:00N 40°47' E 024°42'1 2.8
2018-Feb-20 04:30N 40°48' E 024°42'3 6.7
2018-Feb-20 04:00N 40°51' E 024°42'0 0.0
2018-Feb-20 03:30N 40°51' E 024°42'0 0.0
2018-Feb-19 15:52N 40°51' E 024°42'1 3.5
2018-Feb-19 15:30N 40°52' E 024°41'5 9.7
2018-Feb-19 15:00N 40°47' E 024°42'0 0.0
2018-Feb-19 14:30N 40°47' E 024°42'0 0.0
2018-Feb-19 14:00N 40°47' E 024°42'0 0.0
2018-Feb-19 13:29N 40°47' E 024°42'0 0.0
2018-Feb-19 13:00N 40°47' E 024°42'0 0.0
2018-Feb-19 12:30N 40°47' E 024°42'0 0.0
2018-Feb-19 12:00N 40°47' E 024°42'0 0.0
2018-Feb-19 11:30N 40°47' E 024°42'0 0.0
2018-Feb-19 11:00N 40°47' E 024°42'0 0.0
2018-Feb-19 10:31N 40°47' E 024°42'0 0.0
2018-Feb-19 10:00N 40°47' E 024°42'0 0.0
2018-Feb-19 09:31N 40°47' E 024°42'0 0.0
2018-Feb-19 09:01N 40°47' E 024°42'0 0.0
2018-Feb-19 08:31N 40°47' E 024°42'0 0.0
2018-Feb-19 08:01N 40°47' E 024°42'1 2.9
2018-Feb-19 07:30N 40°48' E 024°41'3 6.9
2018-Feb-19 07:00N 40°51' E 024°42'0 0.0
2018-Feb-19 06:30N 40°51' E 024°42'2 4.7
2018-Feb-19 06:00N 40°49' E 024°41'2 4.9
2018-Feb-19 05:31N 40°47' E 024°42'4 7.0
2018-Feb-19 05:00N 40°50' E 024°41'1 3.0
2018-Feb-19 04:30N 40°51' E 024°42'1 2.0
2018-Feb-19 04:00N 40°51' E 024°41'5 9.5
2018-Feb-19 03:30N 40°47' E 024°42'0 0.0
2018-Feb-19 03:01N 40°47' E 024°42'0 0.0
2018-Feb-18 09:37N 40°47' E 024°42'0 0.0
2018-Feb-18 09:31N 40°47' E 024°42'4 7.1
2018-Feb-18 09:01N 40°50' E 024°41'2 3.2
2018-Feb-18 08:30N 40°51' E 024°42'1 1.5
2018-Feb-18 08:00N 40°52' E 024°41'5 9.7
2018-Feb-18 07:31N 40°47' E 024°42'0 0.0
2018-Feb-18 07:00N 40°47' E 024°42'0 0.0
2018-Feb-18 06:30N 40°47' E 024°42'0 0.0
2018-Feb-18 06:00N 40°47' E 024°42'0 0.0
2018-Feb-18 05:30N 40°47' E 024°42'0 0.0
2018-Feb-18 05:00N 40°47' E 024°42'1 2.3
2018-Feb-18 04:29N 40°48' E 024°42'3 7.2
2018-Feb-18 04:00N 40°51' E 024°42'0 0.0
2018-Feb-18 03:30N 40°51' E 024°42'0 0.0
2018-Feb-17 17:21N 40°51' E 024°42'0 0.0
2018-Feb-17 17:01N 40°51' E 024°42'0 0.0
2018-Feb-17 16:30N 40°51' E 024°42'0 0.0
2018-Feb-17 16:00N 40°51' E 024°42'1 2.4
2018-Feb-17 15:31N 40°51' E 024°41'4 9.0
2018-Feb-17 15:00N 40°47' E 024°42'0 0.0
2018-Feb-17 14:30N 40°47' E 024°42'0 0.0
2018-Feb-17 14:01N 40°47' E 024°42'4 7.4
2018-Feb-17 13:30N 40°50' E 024°41'2 3.2
2018-Feb-17 13:00N 40°51' E 024°42'2 4.7
2018-Feb-17 12:30N 40°49' E 024°41'2 4.9
2018-Feb-17 12:01N 40°47' E 024°42'1 3.0
2018-Feb-17 11:31N 40°48' E 024°41'3 6.6
2018-Feb-17 11:01N 40°51' E 024°42'0 0.0
2018-Feb-17 10:30N 40°51' E 024°42'3 5.2
2018-Feb-17 10:00N 40°49' E 024°41'2 4.5
2018-Feb-17 09:31N 40°47' E 024°42'0 0.0
2018-Feb-17 09:00N 40°47' E 024°42'0 0.0
2018-Feb-16 11:18N 40°47' E 024°42'0 0.0
2018-Feb-16 11:01N 40°47' E 024°42'4 8.1
2018-Feb-16 10:31N 40°51' E 024°40'2 3.4
2018-Feb-16 10:00N 40°51' E 024°42'1 1.2
2018-Feb-16 09:31N 40°52' E 024°41'5 9.7
2018-Feb-16 09:00N 40°47' E 024°42'0 0.0
2018-Feb-16 08:31N 40°47' E 024°42'4 7.3
2018-Feb-16 08:00N 40°50' E 024°40'2 3.6
2018-Feb-16 07:30N 40°51' E 024°42'1 1.2
2018-Feb-16 07:01N 40°52' E 024°41'5 9.6
2018-Feb-16 06:31N 40°47' E 024°42'0 0.0
2018-Feb-16 06:00N 40°47' E 024°42'0 0.0
2018-Feb-16 05:30N 40°47' E 024°42'0 0.0
2018-Feb-16 05:01N 40°47' E 024°42'0 0.0
2018-Feb-16 04:30N 40°47' E 024°42'0 0.0
2018-Feb-15 13:57N 40°47' E 024°42'0 0.9
2018-Feb-15 13:30N 40°47' E 024°42'4 8.5
2018-Feb-15 13:00N 40°51' E 024°39'2 4.3
2018-Feb-15 12:30N 40°51' E 024°42'1 2.4
2018-Feb-15 12:00N 40°51' E 024°41'5 9.0
2018-Feb-15 11:30N 40°47' E 024°42'0 0.0
2018-Feb-15 11:00N 40°47' E 024°42'0 0.0
2018-Feb-15 10:30N 40°47' E 024°42'0 0.0
2018-Feb-15 10:00N 40°47' E 024°42'0 0.0
2018-Feb-15 09:30N 40°47' E 024°42'0 0.0
2018-Feb-15 08:58N 40°47' E 024°42'0 0.0
2018-Feb-15 08:30N 40°47' E 024°42'0 0.0
2018-Feb-15 08:00N 40°47' E 024°42'2 3.1
2018-Feb-15 07:30N 40°48' E 024°41'3 6.8
2018-Feb-15 07:00N 40°51' E 024°42'0 0.0
2018-Feb-15 06:30N 40°51' E 024°42'2 4.8
2018-Feb-15 06:00N 40°49' E 024°42'2 4.6
2018-Feb-15 05:30N 40°47' E 024°42'3 6.6
2018-Feb-15 05:00N 40°50' E 024°41'2 3.6
2018-Feb-15 04:30N 40°51' E 024°42'1 1.9
2018-Feb-15 04:00N 40°52' E 024°41'5 9.8
2018-Feb-15 03:30N 40°47' E 024°42'4 8.2
2018-Feb-15 03:00N 40°48' E 024°37'3 6.7
2018-Feb-15 02:30N 40°46' E 024°35'0 0.0
2018-Feb-14 16:42N 40°46' E 024°35'0 0.0
2018-Feb-14 16:30N 40°46' E 024°35'3 6.6
2018-Feb-14 16:01N 40°49' E 024°33'510.2
2018-Feb-14 15:30N 40°50' E 024°26'510.0
2018-Feb-14 15:00N 40°50' E 024°20'3 5.1
2018-Feb-14 14:30N 40°49' E 024°22'5 9.8
2018-Feb-14 14:00N 40°48' E 024°29'5 9.7
2018-Feb-14 13:30N 40°46' E 024°35'2 5.0
2018-Feb-14 13:00N 40°48' E 024°37'4 7.7
2018-Feb-14 12:29N 40°47' E 024°42'3 6.7
2018-Feb-14 12:00N 40°50' E 024°41'2 3.6
2018-Feb-14 11:30N 40°51' E 024°42'1 1.0
2018-Feb-14 11:00N 40°52' E 024°41'5 9.6
2018-Feb-14 10:30N 40°47' E 024°42'0 0.0
2018-Feb-14 09:59N 40°47' E 024°42'0 0.0
2018-Feb-14 09:30N 40°47' E 024°42'3 6.8
2018-Feb-14 09:00N 40°50' E 024°41'2 3.2
2018-Feb-14 08:31N 40°51' E 024°42'1 2.2
2018-Feb-14 08:00N 40°51' E 024°41'4 8.7
2018-Feb-14 07:30N 40°47' E 024°42'0 0.0
2018-Feb-14 07:00N 40°47' E 024°42'0 0.0
2018-Feb-14 06:30N 40°47' E 024°42'0 0.0
2018-Feb-13 13:35N 40°47' E 024°42'0 0.1
2018-Feb-13 13:31N 40°47' E 024°42'3 6.4
2018-Feb-13 13:01N 40°50' E 024°41'2 3.9
2018-Feb-13 12:31N 40°51' E 024°42'0 0.8
2018-Feb-13 12:00N 40°52' E 024°42'5 9.6
2018-Feb-13 11:30N 40°47' E 024°42'0 0.0
2018-Feb-13 11:01N 40°47' E 024°42'0 0.0
2018-Feb-13 10:31N 40°47' E 024°42'0 0.0
2018-Feb-13 10:00N 40°47' E 024°42'0 0.0
2018-Feb-13 09:31N 40°47' E 024°42'0 0.0
2018-Feb-13 09:00N 40°47' E 024°42'3 6.2
2018-Feb-13 08:30N 40°50' E 024°41'2 4.2
2018-Feb-13 08:01N 40°51' E 024°42'0 0.7
2018-Feb-13 07:31N 40°52' E 024°42'5 9.6
2018-Feb-13 07:01N 40°47' E 024°42'0 0.0
2018-Feb-13 06:31N 40°47' E 024°42'1 1.3
2018-Feb-13 06:00N 40°47' E 024°42'4 8.2
2018-Feb-13 05:31N 40°51' E 024°42'0 0.0
2018-Feb-13 05:01N 40°51' E 024°42'0 0.0
2018-Feb-13 04:30N 40°51' E 024°42'0 0.0
2018-Feb-13 04:00N 40°51' E 024°42'0 0.0
2018-Feb-12 17:50N 40°51' E 024°42'1 1.9
2018-Feb-12 17:30N 40°52' E 024°41'5 9.7
2018-Feb-12 17:00N 40°47' E 024°42'0 0.1
2018-Feb-12 16:30N 40°47' E 024°42'0 0.0
2018-Feb-12 16:00N 40°47' E 024°42'1 1.3
2018-Feb-12 15:30N 40°47' E 024°42'4 8.3
2018-Feb-12 15:00N 40°51' E 024°42'0 0.1
2018-Feb-12 14:30N 40°51' E 024°42'5 9.3
2018-Feb-12 14:00N 40°47' E 024°42'0 0.1
2018-Feb-12 13:30N 40°47' E 024°42'0 0.0
2018-Feb-12 12:59N 40°47' E 024°42'4 7.4
2018-Feb-12 12:30N 40°50' E 024°41'2 3.4
2018-Feb-12 12:00N 40°51' E 024°42'0 0.6
2018-Feb-12 11:30N 40°52' E 024°42'5 9.5
2018-Feb-12 11:00N 40°47' E 024°42'0 0.0
2018-Feb-12 10:30N 40°47' E 024°42'1 1.5
2018-Feb-12 10:00N 40°48' E 024°42'4 7.9
2018-Feb-12 09:30N 40°51' E 024°42'0 0.0
2018-Feb-12 09:00N 40°51' E 024°42'2 4.2
2018-Feb-12 08:30N 40°49' E 024°41'3 5.4
2018-Feb-12 08:00N 40°47' E 024°42'0 0.0
2018-Feb-12 07:30N 40°47' E 024°42'0 0.0
2018-Feb-11 18:20N 40°47' E 024°42'1 3.3
2018-Feb-11 18:01N 40°48' E 024°41'4 7.6
2018-Feb-11 17:31N 40°51' E 024°42'0 0.0
2018-Feb-11 17:00N 40°51' E 024°42'0 0.5
2018-Feb-11 16:31N 40°52' E 024°42'5 9.5
2018-Feb-11 16:01N 40°47' E 024°42'0 0.0
2018-Feb-11 15:31N 40°47' E 024°42'0 0.0
2018-Feb-11 15:01N 40°47' E 024°42'1 2.0
2018-Feb-11 14:30N 40°48' E 024°41'4 7.8
2018-Feb-11 14:01N 40°51' E 024°42'0 0.6
2018-Feb-11 13:30N 40°52' E 024°42'5 9.5
2018-Feb-11 13:01N 40°47' E 024°42'0 0.1
2018-Feb-11 12:30N 40°47' E 024°42'0 0.7
2018-Feb-11 12:01N 40°47' E 024°43'0 0.0
2018-Feb-11 03:39N 40°47' E 024°43'0 0.0
2018-Feb-11 03:30N 40°47' E 024°43'0 0.5
2018-Feb-11 03:00N 40°47' E 024°42'0 0.0
2018-Feb-10 18:47N 40°47' E 024°42'0 0.0
2018-Feb-10 18:30N 40°47' E 024°42'2 3.3
2018-Feb-10 18:00N 40°48' E 024°41'3 6.5
2018-Feb-10 17:30N 40°51' E 024°42'0 0.0
2018-Feb-10 17:00N 40°51' E 024°42'1 1.8
2018-Feb-10 16:30N 40°52' E 024°41'5 9.8
2018-Feb-10 16:00N 40°47' E 024°42'0 0.0
2018-Feb-10 15:30N 40°47' E 024°42'0 0.0
2018-Feb-10 15:00N 40°47' E 024°42'1 3.0
2018-Feb-10 14:30N 40°48' E 024°41'4 7.1
2018-Feb-10 14:00N 40°51' E 024°42'1 1.1
2018-Feb-10 13:30N 40°52' E 024°41'5 9.6
2018-Feb-10 13:00N 40°47' E 024°42'0 0.0
2018-Feb-10 12:30N 40°47' E 024°42'0 0.5
2018-Feb-10 12:00N 40°47' E 024°43'  
Track history (hours):
 
Tides and Currents Weather Stations Pressure Air Temp Water Temp Dewpoint Dewpoint Depression Visibility Wind Speed Wind Dir Waves Ship Positions

Thassos III

Last reported at 2018-Feb-20 06:00 UTC. Time now 2018-Feb-20 06:14 UTC.
Position N 40°47' E 024°42'.

Length 100 m; draft 2.1 m.

Type: Passenger vessel. MMSI: 239371500.

Date/timePositionNaut miles runAvg speedWind from/ knotsBaromVisibWave heightAir tempDewpointWater temp
2018-Feb-20 06:00N 40°47' E 024°42'0 0.0
2018-Feb-20 05:30N 40°47' E 024°42'0 0.0
2018-Feb-20 05:00N 40°47' E 024°42'1 2.8
2018-Feb-20 04:30N 40°48' E 024°42'3 6.7
2018-Feb-20 04:00N 40°51' E 024°42'0 0.0
2018-Feb-20 03:30N 40°51' E 024°42'0 0.0
2018-Feb-19 15:52N 40°51' E 024°42'1 3.5
2018-Feb-19 15:30N 40°52' E 024°41'5 9.7
2018-Feb-19 15:00N 40°47' E 024°42'0 0.0
2018-Feb-19 14:30N 40°47' E 024°42'0 0.0
2018-Feb-19 14:00N 40°47' E 024°42'0 0.0
2018-Feb-19 13:29N 40°47' E 024°42'0 0.0
2018-Feb-19 13:00N 40°47' E 024°42'0 0.0
2018-Feb-19 12:30N 40°47' E 024°42'0 0.0
2018-Feb-19 12:00N 40°47' E 024°42'0 0.0
2018-Feb-19 11:30N 40°47' E 024°42'0 0.0
2018-Feb-19 11:00N 40°47' E 024°42'0 0.0
2018-Feb-19 10:31N 40°47' E 024°42'0 0.0
2018-Feb-19 10:00N 40°47' E 024°42'0 0.0
2018-Feb-19 09:31N 40°47' E 024°42'0 0.0
2018-Feb-19 09:01N 40°47' E 024°42'0 0.0
2018-Feb-19 08:31N 40°47' E 024°42'0 0.0
2018-Feb-19 08:01N 40°47' E 024°42'1 2.9
2018-Feb-19 07:30N 40°48' E 024°41'3 6.9
2018-Feb-19 07:00N 40°51' E 024°42'0 0.0
2018-Feb-19 06:30N 40°51' E 024°42'2 4.7
2018-Feb-19 06:00N 40°49' E 024°41'2 4.9
2018-Feb-19 05:31N 40°47' E 024°42'4 7.0
2018-Feb-19 05:00N 40°50' E 024°41'1 3.0
2018-Feb-19 04:30N 40°51' E 024°42'1 2.0
2018-Feb-19 04:00N 40°51' E 024°41'5 9.5
2018-Feb-19 03:30N 40°47' E 024°42'0 0.0
2018-Feb-19 03:01N 40°47' E 024°42'0 0.0
2018-Feb-18 09:37N 40°47' E 024°42'0 0.0
2018-Feb-18 09:31N 40°47' E 024°42'4 7.1
2018-Feb-18 09:01N 40°50' E 024°41'2 3.2
2018-Feb-18 08:30N 40°51' E 024°42'1 1.5
2018-Feb-18 08:00N 40°52' E 024°41'5 9.7
2018-Feb-18 07:31N 40°47' E 024°42'0 0.0
2018-Feb-18 07:00N 40°47' E 024°42'0 0.0
2018-Feb-18 06:30N 40°47' E 024°42'0 0.0
2018-Feb-18 06:00N 40°47' E 024°42'0 0.0
2018-Feb-18 05:30N 40°47' E 024°42'0 0.0
2018-Feb-18 05:00N 40°47' E 024°42'1 2.3
2018-Feb-18 04:29N 40°48' E 024°42'3 7.2
2018-Feb-18 04:00N 40°51' E 024°42'0 0.0
2018-Feb-18 03:30N 40°51' E 024°42'0 0.0
2018-Feb-17 17:21N 40°51' E 024°42'0 0.0
2018-Feb-17 17:01N 40°51' E 024°42'0 0.0
2018-Feb-17 16:30N 40°51' E 024°42'0 0.0
2018-Feb-17 16:00N 40°51' E 024°42'1 2.4
2018-Feb-17 15:31N 40°51' E 024°41'4 9.0
2018-Feb-17 15:00N 40°47' E 024°42'0 0.0
2018-Feb-17 14:30N 40°47' E 024°42'0 0.0
2018-Feb-17 14:01N 40°47' E 024°42'4 7.4
2018-Feb-17 13:30N 40°50' E 024°41'2 3.2
2018-Feb-17 13:00N 40°51' E 024°42'2 4.7
2018-Feb-17 12:30N 40°49' E 024°41'2 4.9
2018-Feb-17 12:01N 40°47' E 024°42'1 3.0
2018-Feb-17 11:31N 40°48' E 024°41'3 6.6
2018-Feb-17 11:01N 40°51' E 024°42'0 0.0
2018-Feb-17 10:30N 40°51' E 024°42'3 5.2
2018-Feb-17 10:00N 40°49' E 024°41'2 4.5
2018-Feb-17 09:31N 40°47' E 024°42'0 0.0
2018-Feb-17 09:00N 40°47' E 024°42'0 0.0
2018-Feb-16 11:18N 40°47' E 024°42'0 0.0
2018-Feb-16 11:01N 40°47' E 024°42'4 8.1
2018-Feb-16 10:31N 40°51' E 024°40'2 3.4
2018-Feb-16 10:00N 40°51' E 024°42'1 1.2
2018-Feb-16 09:31N 40°52' E 024°41'5 9.7
2018-Feb-16 09:00N 40°47' E 024°42'0 0.0
2018-Feb-16 08:31N 40°47' E 024°42'4 7.3
2018-Feb-16 08:00N 40°50' E 024°40'2 3.6
2018-Feb-16 07:30N 40°51' E 024°42'1 1.2
2018-Feb-16 07:01N 40°52' E 024°41'5 9.6
2018-Feb-16 06:31N 40°47' E 024°42'0 0.0
2018-Feb-16 06:00N 40°47' E 024°42'0 0.0
2018-Feb-16 05:30N 40°47' E 024°42'0 0.0
2018-Feb-16 05:01N 40°47' E 024°42'0 0.0
2018-Feb-16 04:30N 40°47' E 024°42'0 0.0
2018-Feb-15 13:57N 40°47' E 024°42'0 0.9
2018-Feb-15 13:30N 40°47' E 024°42'4 8.5
2018-Feb-15 13:00N 40°51' E 024°39'2 4.3
2018-Feb-15 12:30N 40°51' E 024°42'1 2.4
2018-Feb-15 12:00N 40°51' E 024°41'5 9.0
2018-Feb-15 11:30N 40°47' E 024°42'0 0.0
2018-Feb-15 11:00N 40°47' E 024°42'0 0.0
2018-Feb-15 10:30N 40°47' E 024°42'0 0.0
2018-Feb-15 10:00N 40°47' E 024°42'0 0.0
2018-Feb-15 09:30N 40°47' E 024°42'0 0.0
2018-Feb-15 08:58N 40°47' E 024°42'0 0.0
2018-Feb-15 08:30N 40°47' E 024°42'0 0.0
2018-Feb-15 08:00N 40°47' E 024°42'2 3.1
2018-Feb-15 07:30N 40°48' E 024°41'3 6.8
2018-Feb-15 07:00N 40°51' E 024°42'0 0.0
2018-Feb-15 06:30N 40°51' E 024°42'2 4.8
2018-Feb-15 06:00N 40°49' E 024°42'2 4.6
2018-Feb-15 05:30N 40°47' E 024°42'3 6.6
2018-Feb-15 05:00N 40°50' E 024°41'2 3.6
2018-Feb-15 04:30N 40°51' E 024°42'1 1.9
2018-Feb-15 04:00N 40°52' E 024°41'5 9.8
2018-Feb-15 03:30N 40°47' E 024°42'4 8.2
2018-Feb-15 03:00N 40°48' E 024°37'3 6.7
2018-Feb-15 02:30N 40°46' E 024°35'0 0.0
2018-Feb-14 16:42N 40°46' E 024°35'0 0.0
2018-Feb-14 16:30N 40°46' E 024°35'3 6.6
2018-Feb-14 16:01N 40°49' E 024°33'510.2
2018-Feb-14 15:30N 40°50' E 024°26'510.0
2018-Feb-14 15:00N 40°50' E 024°20'3 5.1
2018-Feb-14 14:30N 40°49' E 024°22'5 9.8
2018-Feb-14 14:00N 40°48' E 024°29'5 9.7
2018-Feb-14 13:30N 40°46' E 024°35'2 5.0
2018-Feb-14 13:00N 40°48' E 024°37'4 7.7
2018-Feb-14 12:29N 40°47' E 024°42'3 6.7
2018-Feb-14 12:00N 40°50' E 024°41'2 3.6
2018-Feb-14 11:30N 40°51' E 024°42'1 1.0
2018-Feb-14 11:00N 40°52' E 024°41'5 9.6
2018-Feb-14 10:30N 40°47' E 024°42'0 0.0
2018-Feb-14 09:59N 40°47' E 024°42'0 0.0
2018-Feb-14 09:30N 40°47' E 024°42'3 6.8
2018-Feb-14 09:00N 40°50' E 024°41'2 3.2
2018-Feb-14 08:31N 40°51' E 024°42'1 2.2
2018-Feb-14 08:00N 40°51' E 024°41'4 8.7
2018-Feb-14 07:30N 40°47' E 024°42'0 0.0
2018-Feb-14 07:00N 40°47' E 024°42'0 0.0
2018-Feb-14 06:30N 40°47' E 024°42'0 0.0
2018-Feb-13 13:35N 40°47' E 024°42'0 0.1
2018-Feb-13 13:31N 40°47' E 024°42'3 6.4
2018-Feb-13 13:01N 40°50' E 024°41'2 3.9
2018-Feb-13 12:31N 40°51' E 024°42'0 0.8
2018-Feb-13 12:00N 40°52' E 024°42'5 9.6
2018-Feb-13 11:30N 40°47' E 024°42'0 0.0
2018-Feb-13 11:01N 40°47' E 024°42'0 0.0
2018-Feb-13 10:31N 40°47' E 024°42'0 0.0
2018-Feb-13 10:00N 40°47' E 024°42'0 0.0
2018-Feb-13 09:31N 40°47' E 024°42'0 0.0
2018-Feb-13 09:00N 40°47' E 024°42'3 6.2
2018-Feb-13 08:30N 40°50' E 024°41'2 4.2
2018-Feb-13 08:01N 40°51' E 024°42'0 0.7
2018-Feb-13 07:31N 40°52' E 024°42'5 9.6
2018-Feb-13 07:01N 40°47' E 024°42'0 0.0
2018-Feb-13 06:31N 40°47' E 024°42'1 1.3
2018-Feb-13 06:00N 40°47' E 024°42'4 8.2
2018-Feb-13 05:31N 40°51' E 024°42'0 0.0
2018-Feb-13 05:01N 40°51' E 024°42'0 0.0
2018-Feb-13 04:30N 40°51' E 024°42'0 0.0
2018-Feb-13 04:00N 40°51' E 024°42'0 0.0
2018-Feb-12 17:50N 40°51' E 024°42'1 1.9
2018-Feb-12 17:30N 40°52' E 024°41'5 9.7
2018-Feb-12 17:00N 40°47' E 024°42'0 0.1
2018-Feb-12 16:30N 40°47' E 024°42'0 0.0
2018-Feb-12 16:00N 40°47' E 024°42'1 1.3
2018-Feb-12 15:30N 40°47' E 024°42'4 8.3
2018-Feb-12 15:00N 40°51' E 024°42'0 0.1
2018-Feb-12 14:30N 40°51' E 024°42'5 9.3
2018-Feb-12 14:00N 40°47' E 024°42'0 0.1
2018-Feb-12 13:30N 40°47' E 024°42'0 0.0
2018-Feb-12 12:59N 40°47' E 024°42'4 7.4
2018-Feb-12 12:30N 40°50' E 024°41'2 3.4
2018-Feb-12 12:00N 40°51' E 024°42'0 0.6
2018-Feb-12 11:30N 40°52' E 024°42'5 9.5
2018-Feb-12 11:00N 40°47' E 024°42'0 0.0
2018-Feb-12 10:30N 40°47' E 024°42'1 1.5
2018-Feb-12 10:00N 40°48' E 024°42'4 7.9
2018-Feb-12 09:30N 40°51' E 024°42'0 0.0
2018-Feb-12 09:00N 40°51' E 024°42'2 4.2
2018-Feb-12 08:30N 40°49' E 024°41'3 5.4
2018-Feb-12 08:00N 40°47' E 024°42'0 0.0
2018-Feb-12 07:30N 40°47' E 024°42'0 0.0
2018-Feb-11 18:20N 40°47' E 024°42'1 3.3
2018-Feb-11 18:01N 40°48' E 024°41'4 7.6
2018-Feb-11 17:31N 40°51' E 024°42'0 0.0
2018-Feb-11 17:00N 40°51' E 024°42'0 0.5
2018-Feb-11 16:31N 40°52' E 024°42'5 9.5
2018-Feb-11 16:01N 40°47' E 024°42'0 0.0
2018-Feb-11 15:31N 40°47' E 024°42'0 0.0
2018-Feb-11 15:01N 40°47' E 024°42'1 2.0
2018-Feb-11 14:30N 40°48' E 024°41'4 7.8
2018-Feb-11 14:01N 40°51' E 024°42'0 0.6
2018-Feb-11 13:30N 40°52' E 024°42'5 9.5
2018-Feb-11 13:01N 40°47' E 024°42'0 0.1
2018-Feb-11 12:30N 40°47' E 024°42'0 0.7
2018-Feb-11 12:01N 40°47' E 024°43'0 0.0
2018-Feb-11 03:39N 40°47' E 024°43'0 0.0
2018-Feb-11 03:30N 40°47' E 024°43'0 0.5
2018-Feb-11 03:00N 40°47' E 024°42'0 0.0
2018-Feb-10 18:47N 40°47' E 024°42'0 0.0
2018-Feb-10 18:30N 40°47' E 024°42'2 3.3
2018-Feb-10 18:00N 40°48' E 024°41'3 6.5
2018-Feb-10 17:30N 40°51' E 024°42'0 0.0
2018-Feb-10 17:00N 40°51' E 024°42'1 1.8
2018-Feb-10 16:30N 40°52' E 024°41'5 9.8
2018-Feb-10 16:00N 40°47' E 024°42'0 0.0
2018-Feb-10 15:30N 40°47' E 024°42'0 0.0
2018-Feb-10 15:00N 40°47' E 024°42'1 3.0
2018-Feb-10 14:30N 40°48' E 024°41'4 7.1
2018-Feb-10 14:00N 40°51' E 024°42'1 1.1
2018-Feb-10 13:30N 40°52' E 024°41'5 9.6
2018-Feb-10 13:00N 40°47' E 024°42'0 0.0
2018-Feb-10 12:30N 40°47' E 024°42'0 0.5
2018-Feb-10 12:00N 40°47' E 024°43'  

Dump ship's entire track history